Time;durP1;ratioP1;P1;durP2;ratioP2;P2;SDS_P1;SDS_P2;PMS_P1;PMS_P2;Temp;Humidity;BMP_temperature;BMP_pressure;BME280_temperature;BME280_humidity;BME280_pressure;Samples;Min_cycle;Max_cycle;Signal;HPM_P1;HPM_P2
2022/10/03 00:02:07;;;;;;;2.17;1.30;;;11.40;99.90;;;;;;5058035;28;20459;-78
2022/10/03 00:04:46;;;;;;;1.67;1.57;;;11.40;99.90;;;;;;5059409;28;20855;-78
2022/10/03 00:07:28;;;;;;;1.63;1.53;;;11.40;99.90;;;;;;5058971;28;20461;-78
2022/10/03 00:10:10;;;;;;;1.60;1.50;;;11.40;99.90;;;;;;5062463;28;20541;-78
2022/10/03 00:13:00;;;;;;;2.50;2.07;;;11.50;99.90;;;;;;5062252;28;20439;-78
2022/10/03 00:15:32;;;;;;;1.70;1.60;;;11.50;99.90;;;;;;5062274;28;20490;-78
2022/10/03 00:18:11;;;;;;;2.10;2.00;;;11.40;99.90;;;;;;5061780;28;20513;-78
2022/10/03 00:20:54;;;;;;;1.53;1.43;;;11.40;99.90;;;;;;5064406;28;20480;-77
2022/10/03 00:23:26;;;;;;;1.47;1.10;;;11.40;99.90;;;;;;5059794;28;20501;-77
2022/10/03 00:26:25;;;;;;;4.13;3.00;;;11.40;99.90;;;;;;5061044;28;20443;-77
2022/10/03 00:29:06;;;;;;;1.70;1.60;;;11.40;99.90;;;;;;5060186;28;20440;-78
2022/10/03 00:31:41;;;;;;;4.83;2.27;;;11.30;99.90;;;;;;5063271;28;20505;-77
2022/10/03 00:34:24;;;;;;;2.47;2.27;;;11.40;99.90;;;;;;5061596;28;20992;-78
2022/10/03 00:37:05;;;;;;;1.80;1.70;;;11.30;99.90;;;;;;5062243;28;20494;-78
2022/10/03 00:39:43;;;;;;;2.90;1.67;;;11.30;99.90;;;;;;5062178;28;20467;-78
2022/10/03 00:43:01;;;;;;;4.30;2.23;;;11.30;99.90;;;;;;5059954;28;20483;-78
2022/10/03 00:45:48;;;;;;;3.07;2.50;;;11.30;99.90;;;;;;5062120;28;20525;-78
2022/10/03 00:48:52;;;;;;;3.37;2.23;;;11.30;99.90;;;;;;5059992;28;20469;-78
2022/10/03 00:51:31;;;;;;;2.70;2.50;;;11.20;99.90;;;;;;5062267;28;20517;-78
2022/10/03 00:54:13;;;;;;;2.90;2.10;;;11.20;99.90;;;;;;5055550;28;20463;-78
2022/10/03 00:56:57;;;;;;;3.93;2.73;;;11.20;99.90;;;;;;5060811;28;20515;-77
2022/10/03 00:59:39;;;;;;;2.00;1.90;;;11.10;99.90;;;;;;5060040;28;21055;-78
2022/10/03 01:02:36;;;;;;;2.40;2.20;;;11.10;99.90;;;;;;5058029;28;20467;-78
2022/10/03 01:05:12;;;;;;;2.37;2.00;;;11.10;99.90;;;;;;5057726;28;20961;-78
2022/10/03 01:08:04;;;;;;;2.03;1.93;;;11.10;99.90;;;;;;5060841;28;20554;-78
2022/10/03 01:10:39;;;;;;;2.70;2.50;;;11.00;99.90;;;;;;5060982;28;20463;-77
2022/10/03 01:13:25;;;;;;;3.27;2.93;;;11.00;99.90;;;;;;5059151;28;20470;-78
2022/10/03 01:16:00;;;;;;;2.70;2.50;;;11.00;99.90;;;;;;5056499;28;20498;-78
2022/10/03 01:18:39;;;;;;;4.83;3.30;;;11.00;99.90;;;;;;5063258;28;20962;-78
2022/10/03 01:21:17;;;;;;;3.67;3.33;;;11.00;99.90;;;;;;5058149;28;20955;-78
2022/10/03 01:24:25;;;;;;;3.70;2.97;;;11.00;99.90;;;;;;5058491;28;21114;-78
2022/10/03 01:27:00;;;;;;;3.77;3.30;;;11.00;99.90;;;;;;5021356;28;20577;-78
2022/10/03 01:32:44;;;;;;;4.23;3.87;;;11.00;99.90;;;;;;5061640;28;20577;-77
2022/10/03 01:35:21;;;;;;;3.07;2.77;;;10.90;99.90;;;;;;5057937;28;20465;-78
2022/10/03 01:37:58;;;;;;;3.50;3.20;;;10.90;99.90;;;;;;5059642;28;20483;-78
2022/10/03 01:40:29;;;;;;;3.57;3.10;;;10.90;99.90;;;;;;5061855;28;20479;-78
2022/10/03 01:43:12;;;;;;;2.60;2.40;;;10.80;99.90;;;;;;5053779;28;20456;-78
2022/10/03 01:45:55;;;;;;;3.17;2.80;;;10.80;99.90;;;;;;5059909;28;20444;-78
2022/10/03 01:48:28;;;;;;;3.23;2.90;;;10.80;99.90;;;;;;5058992;28;20496;-78
2022/10/03 01:51:01;;;;;;;3.60;2.70;;;10.80;99.90;;;;;;5061715;28;20497;-77
2022/10/03 01:53:40;;;;;;;2.97;2.50;;;10.70;99.90;;;;;;5065309;28;20509;-77
2022/10/03 01:56:15;;;;;;;4.50;2.90;;;10.80;99.90;;;;;;5063260;28;20483;-77
2022/10/03 01:58:55;;;;;;;2.90;2.70;;;10.80;99.90;;;;;;5068106;28;20504;-77
2022/10/03 02:01:31;;;;;;;3.50;3.20;;;10.80;99.90;;;;;;5063975;28;20450;-78
2022/10/03 02:04:06;;;;;;;4.83;3.20;;;10.80;99.90;;;;;;5059252;28;20495;-78
2022/10/03 02:06:44;;;;;;;4.57;2.77;;;10.80;99.90;;;;;;5060103;28;20451;-78
2022/10/03 02:09:25;;;;;;;4.03;3.73;;;10.80;99.90;;;;;;5058903;28;20925;-78
2022/10/03 02:12:06;;;;;;;3.43;3.13;;;10.80;99.90;;;;;;5061477;28;20511;-78
2022/10/03 02:14:48;;;;;;;3.70;3.50;;;10.80;99.90;;;;;;5064613;28;21301;-78
2022/10/03 02:17:29;;;;;;;3.90;3.67;;;10.80;99.90;;;;;;5065289;28;20479;-78
2022/10/03 02:20:06;;;;;;;3.23;3.00;;;10.80;99.90;;;;;;5058750;28;20470;-78
2022/10/03 02:22:41;;;;;;;3.73;3.43;;;10.80;99.90;;;;;;5066309;28;20474;-78
2022/10/03 02:25:25;;;;;;;4.60;4.07;;;10.80;99.90;;;;;;5063370;28;20520;-78
2022/10/03 02:28:29;;;;;;;5.10;3.70;;;10.80;99.90;;;;;;5058920;28;21240;-78
2022/10/03 02:31:32;;;;;;;4.03;3.60;;;10.70;99.90;;;;;;5061037;28;20501;-78
2022/10/03 02:34:32;;;;;;;4.07;3.10;;;10.70;99.90;;;;;;5062326;28;20470;-78
2022/10/03 02:37:25;;;;;;;5.20;4.70;;;10.70;99.90;;;;;;5055320;28;20577;-78
2022/10/03 02:40:35;;;;;;;6.73;5.97;;;10.70;99.90;;;;;;5059969;28;20550;-78
2022/10/03 02:43:44;;;;;;;3.80;3.50;;;10.70;99.90;;;;;;5021597;28;20526;-77
2022/10/03 02:46:36;;;;;;;7.97;4.30;;;10.60;99.90;;;;;;5059609;28;20668;-78
2022/10/03 02:49:32;;;;;;;6.00;3.33;;;10.70;99.90;;;;;;5059481;28;20556;-78
2022/10/03 02:52:27;;;;;;;5.67;5.17;;;10.60;99.90;;;;;;5063138;28;20459;-78
2022/10/03 02:55:20;;;;;;;5.47;4.30;;;10.60;99.90;;;;;;5063760;28;20518;-78
2022/10/03 02:58:29;;;;;;;6.17;4.23;;;10.60;99.90;;;;;;5059575;28;21329;-78
2022/10/03 03:01:28;;;;;;;4.40;4.00;;;10.60;99.90;;;;;;5058599;28;20463;-78
2022/10/03 03:04:15;;;;;;;4.97;4.03;;;10.50;99.90;;;;;;5054321;28;20556;-78
2022/10/03 03:07:04;;;;;;;5.73;3.60;;;10.50;99.90;;;;;;5063594;28;20467;-78
2022/10/03 03:10:09;;;;;;;4.00;3.20;;;10.50;99.90;;;;;;5060726;28;20464;-78
2022/10/03 03:13:06;;;;;;;4.37;3.97;;;10.60;99.90;;;;;;5034982;28;20467;-77
2022/10/03 03:16:07;;;;;;;5.80;5.30;;;10.50;99.90;;;;;;5059353;28;20460;-78
2022/10/03 03:18:39;;;;;;;6.47;4.10;;;10.50;99.90;;;;;;5059413;28;20533;-78
2022/10/03 03:21:18;;;;;;;4.73;4.17;;;10.50;99.90;;;;;;5058830;28;20487;-78
2022/10/03 03:24:13;;;;;;;6.97;3.77;;;10.50;99.90;;;;;;5065082;28;20853;-78
2022/10/03 03:27:13;;;;;;;3.87;3.50;;;10.40;99.90;;;;;;5062446;28;20511;-78
2022/10/03 03:29:50;;;;;;;4.50;4.13;;;10.40;99.90;;;;;;5062530;28;20459;-78
2022/10/03 03:32:29;;;;;;;6.93;3.83;;;10.40;99.90;;;;;;5062518;28;20463;-78
2022/10/03 03:35:06;;;;;;;3.97;3.67;;;10.30;99.90;;;;;;5062506;28;20539;-78
2022/10/03 03:37:45;;;;;;;3.57;3.27;;;10.30;99.90;;;;;;5059206;28;20642;-78
2022/10/03 03:40:33;;;;;;;4.70;4.30;;;10.20;99.90;;;;;;5061904;28;20848;-78
2022/10/03 03:43:29;;;;;;;4.87;4.47;;;10.20;99.90;;;;;;5060898;28;20780;-77
2022/10/03 03:46:09;;;;;;;6.97;3.70;;;10.10;99.90;;;;;;5060713;28;20553;-78
2022/10/03 03:49:00;;;;;;;7.03;4.57;;;10.10;99.90;;;;;;5061839;28;20490;-78
2022/10/03 03:51:37;;;;;;;5.43;4.77;;;10.10;99.90;;;;;;5064316;28;20550;-78
2022/10/03 03:54:43;;;;;;;4.90;4.00;;;10.20;99.90;;;;;;5056637;28;20534;-77
2022/10/03 03:57:22;;;;;;;4.93;4.53;;;10.10;99.90;;;;;;5058135;28;20554;-78
2022/10/03 04:00:07;;;;;;;5.70;4.70;;;10.10;99.90;;;;;;5064729;28;20444;-78
2022/10/03 04:03:00;;;;;;;6.73;5.80;;;10.00;99.90;;;;;;5063264;28;20455;-78
2022/10/03 04:05:46;;;;;;;7.00;4.57;;;9.90;99.90;;;;;;5058747;28;20454;-78
2022/10/03 04:08:39;;;;;;;5.37;4.87;;;9.90;99.90;;;;;;5056865;28;20487;-78
2022/10/03 04:11:20;;;;;;;6.80;5.70;;;10.00;99.90;;;;;;5059603;28;20883;-78
2022/10/03 04:14:18;;;;;;;6.70;4.77;;;9.90;99.90;;;;;;5060758;28;20541;-78
2022/10/03 04:20:14;;;;;;;5.57;4.40;;;9.90;99.90;;;;;;5019920;28;20536;-78
2022/10/03 04:22:56;;;;;;;4.63;4.03;;;9.90;99.90;;;;;;5023549;28;20489;-78
2022/10/03 04:25:40;;;;;;;5.27;4.40;;;9.90;99.90;;;;;;5044641;28;20543;-78
2022/10/03 04:28:52;;;;;;;5.37;4.17;;;9.90;99.90;;;;;;5060559;28;20503;-78
2022/10/03 04:31:32;;;;;;;4.97;4.40;;;10.00;99.90;;;;;;5030950;28;21283;-78
2022/10/03 04:34:15;;;;;;;6.80;4.53;;;10.00;99.90;;;;;;5056908;28;20463;-78
2022/10/03 04:37:08;;;;;;;5.47;4.37;;;10.00;99.90;;;;;;5059802;28;20519;-78
2022/10/03 04:39:42;;;;;;;5.67;3.90;;;10.00;99.90;;;;;;5056636;28;20483;-77
2022/10/03 04:42:18;;;;;;;11.70;4.90;;;10.00;99.90;;;;;;5061304;28;20543;-77
2022/10/03 04:45:01;;;;;;;8.73;4.57;;;10.10;99.90;;;;;;5062391;28;20479;-78
2022/10/03 04:47:32;;;;;;;6.33;4.87;;;10.10;99.90;;;;;;5057699;28;20455;-78
2022/10/03 04:50:18;;;;;;;6.63;5.03;;;10.20;99.90;;;;;;5058855;28;20495;-77
2022/10/03 04:52:52;;;;;;;7.40;4.40;;;10.20;99.90;;;;;;5056952;28;20932;-78
2022/10/03 04:55:27;;;;;;;6.03;4.27;;;10.20;99.90;;;;;;5056734;28;20561;-77
2022/10/03 04:58:01;;;;;;;5.07;4.57;;;10.20;99.90;;;;;;5058457;28;20541;-78
2022/10/03 05:00:33;;;;;;;4.80;4.17;;;10.20;99.90;;;;;;5055751;28;20459;-78
2022/10/03 05:03:07;;;;;;;8.03;4.60;;;10.10;99.90;;;;;;5051125;28;20922;-78
2022/10/03 05:05:51;;;;;;;8.80;4.83;;;10.10;99.90;;;;;;5038268;28;20580;-77
2022/10/03 05:08:31;;;;;;;6.37;4.70;;;10.10;99.90;;;;;;5047077;28;20462;-77
2022/10/03 05:11:09;;;;;;;7.97;3.87;;;10.10;99.90;;;;;;5059486;28;20548;-78
2022/10/03 05:13:58;;;;;;;4.13;3.73;;;10.10;99.90;;;;;;5059166;28;20460;-77
2022/10/03 05:16:35;;;;;;;6.77;4.63;;;10.10;99.90;;;;;;5061797;28;20467;-77
2022/10/03 05:19:17;;;;;;;8.47;3.80;;;10.10;99.90;;;;;;5056937;28;20512;-77
2022/10/03 05:21:55;;;;;;;4.77;4.37;;;10.10;99.90;;;;;;5058901;28;20451;-77
2022/10/03 05:24:35;;;;;;;8.83;4.70;;;10.00;99.90;;;;;;5061001;28;20487;-77
2022/10/03 05:27:19;;;;;;;5.83;4.57;;;10.00;99.90;;;;;;5057316;28;20568;-79
2022/10/03 05:29:57;;;;;;;6.50;4.60;;;10.10;99.90;;;;;;5061979;28;20455;-78
2022/10/03 05:32:31;;;;;;;4.80;4.30;;;10.10;99.90;;;;;;5048567;28;20534;-79
2022/10/03 05:35:19;;;;;;;7.93;4.47;;;10.10;99.90;;;;;;5057097;28;20458;-79
2022/10/03 05:38:13;;;;;;;4.63;4.10;;;10.20;99.90;;;;;;5058319;28;20484;-79
2022/10/03 05:40:43;;;;;;;6.50;4.67;;;10.20;99.90;;;;;;5047909;28;20491;-79
2022/10/03 05:43:28;;;;;;;7.83;4.13;;;10.20;99.90;;;;;;5060629;28;20545;-78
2022/10/03 05:46:01;;;;;;;6.13;4.37;;;10.10;99.90;;;;;;5063464;28;20463;-79
2022/10/03 05:48:37;;;;;;;4.30;3.93;;;10.10;99.90;;;;;;5060311;28;20487;-78
2022/10/03 05:51:23;;;;;;;5.27;4.30;;;10.20;99.90;;;;;;5053953;28;20975;-78
2022/10/03 05:54:25;;;;;;;8.47;7.57;;;10.30;99.90;;;;;;5062879;28;20792;-79
2022/10/03 05:57:25;;;;;;;7.50;5.17;;;10.30;99.90;;;;;;5057740;28;20528;-79
2022/10/03 06:00:18;;;;;;;11.57;6.07;;;10.30;99.90;;;;;;5067653;28;20560;-79
2022/10/03 06:03:24;;;;;;;7.10;4.33;;;10.40;99.90;;;;;;5065594;28;20537;-80
2022/10/03 06:06:11;;;;;;;4.30;3.87;;;10.40;99.90;;;;;;5059830;28;20506;-79
2022/10/03 06:08:52;;;;;;;6.60;5.80;;;10.40;99.90;;;;;;5058199;28;20466;-79
2022/10/03 06:11:50;;;;;;;5.80;4.73;;;10.50;99.90;;;;;;5057163;28;20581;-79
2022/10/03 06:14:51;;;;;;;6.70;3.97;;;10.50;99.90;;;;;;5055475;28;20487;-79
2022/10/03 06:17:42;;;;;;;5.30;4.50;;;10.50;99.90;;;;;;5054356;28;21005;-79
2022/10/03 06:20:33;;;;;;;5.07;4.67;;;10.60;99.90;;;;;;5056668;28;20548;-79
2022/10/03 06:23:36;;;;;;;8.50;4.80;;;10.60;99.90;;;;;;5052872;28;20468;-79
2022/10/03 06:26:34;;;;;;;6.97;3.93;;;10.60;99.90;;;;;;5053134;28;21346;-80
2022/10/03 06:29:37;;;;;;;6.07;4.50;;;10.60;99.90;;;;;;5054254;28;20472;-80
2022/10/03 06:32:36;;;;;;;9.83;5.07;;;10.70;99.90;;;;;;5044222;28;20512;-80
2022/10/03 06:35:38;;;;;;;5.07;4.67;;;10.80;99.90;;;;;;5052778;28;20494;-79
2022/10/03 06:38:41;;;;;;;12.27;5.87;;;10.80;99.90;;;;;;5038379;28;20567;-79
2022/10/03 06:41:53;;;;;;;4.20;3.50;;;10.90;99.90;;;;;;5061722;28;20435;-79
2022/10/03 06:44:43;;;;;;;4.60;3.50;;;10.90;99.90;;;;;;5039717;28;21606;-79
2022/10/03 06:47:28;;;;;;;4.23;3.80;;;10.90;99.90;;;;;;5059027;28;20448;-79
2022/10/03 06:50:32;;;;;;;8.17;4.93;;;10.90;99.90;;;;;;5061030;28;20899;-79
2022/10/03 06:53:28;;;;;;;3.90;3.43;;;10.90;99.90;;;;;;5062976;28;20903;-79
2022/10/03 06:56:22;;;;;;;6.93;4.20;;;11.00;99.90;;;;;;5059511;28;20521;-79
2022/10/03 06:59:38;;;;;;;7.50;3.90;;;11.00;99.90;;;;;;5056673;28;20578;-79
2022/10/03 07:02:40;;;;;;;9.63;4.47;;;11.00;99.90;;;;;;5028238;28;20616;-79
2022/10/03 07:05:51;;;;;;;6.47;4.60;;;11.00;99.90;;;;;;5053876;28;20468;-78
2022/10/03 07:08:50;;;;;;;4.57;4.17;;;11.10;99.90;;;;;;5052725;28;20549;-76
2022/10/03 07:11:56;;;;;;;6.43;3.80;;;11.10;99.90;;;;;;5058089;28;20498;-79
2022/10/03 07:14:54;;;;;;;8.50;5.00;;;11.20;99.90;;;;;;5041084;28;20529;-77
2022/10/03 07:17:42;;;;;;;9.60;5.07;;;11.30;99.90;;;;;;5060237;28;20475;-77
2022/10/03 07:20:28;;;;;;;4.60;4.00;;;11.20;99.90;;;;;;5057810;28;20518;-77
2022/10/03 07:23:30;;;;;;;5.90;4.53;;;11.30;99.90;;;;;;5062402;28;21002;-78
2022/10/03 07:26:43;;;;;;;7.90;4.10;;;11.20;99.90;;;;;;5063512;28;20499;-77
2022/10/03 07:29:39;;;;;;;6.03;5.00;;;11.30;99.90;;;;;;5056455;28;20455;-77
2022/10/03 07:32:26;;;;;;;10.80;5.57;;;11.30;99.90;;;;;;5058556;28;20452;-79
2022/10/03 07:38:56;;;;;;;5.30;3.67;;;11.30;99.90;;;;;;5051639;28;20490;-78
2022/10/03 07:38:57;;;;;;;5.70;3.73;;;11.40;99.90;;;;;;5063698;28;20579;-77
2022/10/03 07:41:53;;;;;;;22.17;4.30;;;11.50;99.90;;;;;;5060746;28;20462;-78
2022/10/03 07:44:57;;;;;;;16.03;4.63;;;11.50;99.90;;;;;;5058274;28;21092;-77
2022/10/03 07:48:12;;;;;;;8.47;3.80;;;11.60;99.90;;;;;;5058677;28;20479;-77
2022/10/03 07:51:04;;;;;;;5.50;2.90;;;11.50;99.90;;;;;;5062178;28;20462;-77
2022/10/03 07:54:04;;;;;;;6.03;3.40;;;11.60;99.90;;;;;;5063412;28;21065;-77
2022/10/03 07:57:09;;;;;;;11.10;4.20;;;11.60;99.90;;;;;;5062995;28;20444;-77
2022/10/03 08:00:06;;;;;;;4.87;3.37;;;11.60;99.90;;;;;;5023430;28;20467;-78
2022/10/03 08:02:50;;;;;;;5.27;4.70;;;11.70;99.90;;;;;;5062009;28;20464;-78
2022/10/03 08:05:43;;;;;;;4.00;3.23;;;11.90;99.90;;;;;;5062154;28;20460;-78
2022/10/03 08:08:51;;;;;;;11.03;5.03;;;11.90;99.90;;;;;;5060207;28;20535;-77
2022/10/03 08:11:58;;;;;;;4.40;3.70;;;12.00;99.90;;;;;;5057751;28;20463;-77
2022/10/03 08:14:34;;;;;;;9.57;4.00;;;12.00;99.90;;;;;;5058351;28;20484;-77
2022/10/03 08:17:34;;;;;;;6.27;4.57;;;12.20;99.90;;;;;;5064994;28;20814;-78
2022/10/03 08:20:29;;;;;;;9.80;4.00;;;12.20;99.90;;;;;;5052877;28;20543;-77
2022/10/03 08:23:10;;;;;;;6.17;3.77;;;12.10;99.90;;;;;;5063514;28;20532;-77
2022/10/03 08:25:51;;;;;;;6.80;4.17;;;12.00;99.90;;;;;;5058852;28;20460;-77
2022/10/03 08:28:40;;;;;;;3.77;3.20;;;12.00;99.90;;;;;;5059639;28;20483;-77
2022/10/03 08:31:43;;;;;;;7.30;4.70;;;12.10;99.90;;;;;;5068167;28;20914;-77
2022/10/03 08:34:46;;;;;;;6.33;3.60;;;12.20;99.90;;;;;;5051083;28;20492;-78
2022/10/03 08:37:50;;;;;;;7.57;4.00;;;12.20;99.90;;;;;;5057714;28;20499;-77
2022/10/03 08:41:07;;;;;;;6.97;4.30;;;12.40;99.90;;;;;;5047356;28;20544;-78
2022/10/03 08:44:20;;;;;;;4.60;2.77;;;12.70;99.90;;;;;;5061246;28;20459;-77
2022/10/03 08:47:12;;;;;;;3.50;2.20;;;12.70;99.90;;;;;;5059833;28;20576;-77
2022/10/03 08:50:18;;;;;;;8.40;3.20;;;12.60;99.90;;;;;;5064610;28;20509;-78
2022/10/03 08:53:19;;;;;;;4.10;2.70;;;12.50;99.90;;;;;;5053737;28;20955;-77
2022/10/03 08:55:54;;;;;;;5.07;2.37;;;12.40;99.90;;;;;;5058947;28;20475;-77
2022/10/03 08:58:55;;;;;;;6.17;2.27;;;12.30;99.90;;;;;;5057310;28;20486;-78
2022/10/03 09:01:36;;;;;;;1.90;1.70;;;12.50;99.90;;;;;;5059219;28;20530;-78
2022/10/03 09:04:49;;;;;;;4.53;2.27;;;12.60;99.90;;;;;;5068164;28;20474;-77
2022/10/03 09:08:02;;;;;;;2.00;1.80;;;12.70;99.90;;;;;;5056193;28;20513;-77
2022/10/03 09:11:05;;;;;;;5.00;2.87;;;12.80;99.90;;;;;;5032658;28;21121;-77
2022/10/03 09:14:11;;;;;;;3.90;3.23;;;12.70;99.90;;;;;;5052862;28;20456;-76
2022/10/03 09:17:01;;;;;;;3.83;2.90;;;12.60;99.90;;;;;;5062195;28;20561;-77
2022/10/03 09:19:57;;;;;;;3.00;2.80;;;12.40;99.90;;;;;;5057789;28;20532;-77
2022/10/03 09:22:58;;;;;;;6.10;2.80;;;12.30;99.90;;;;;;5065124;28;20936;-77
2022/10/03 09:25:39;;;;;;;3.63;2.57;;;12.20;99.90;;;;;;5054171;28;20522;-78
2022/10/03 09:28:43;;;;;;;9.50;3.27;;;12.20;99.90;;;;;;5062813;28;20479;-77
2022/10/03 09:31:25;;;;;;;6.77;3.80;;;12.40;99.90;;;;;;5058199;28;20991;-77
2022/10/03 09:34:12;;;;;;;7.33;3.47;;;12.40;99.90;;;;;;5063843;28;20494;-77
2022/10/03 09:37:22;;;;;;;4.23;3.03;;;12.60;99.90;;;;;;5067509;28;20828;-77
2022/10/03 09:40:30;;;;;;;3.10;2.90;;;12.70;99.90;;;;;;5056055;28;20511;-77
2022/10/03 09:43:38;;;;;;;4.20;2.73;;;12.90;99.90;;;;;;5059018;28;20572;-77
2022/10/03 09:47:21;;;;;;;3.00;2.20;;;13.10;99.90;;;;;;5059479;28;20603;-77
2022/10/03 09:50:18;;;;;;;3.20;2.83;;;13.20;99.90;;;;;;5058138;28;21002;-77
2022/10/03 09:53:10;;;;;;;5.63;3.00;;;13.40;99.90;;;;;;5044220;28;21144;-77
2022/10/03 09:55:50;;;;;;;4.53;1.93;;;13.40;99.90;;;;;;5057795;28;20478;-77
2022/10/03 09:58:41;;;;;;;7.53;2.60;;;13.20;99.90;;;;;;5060837;28;20534;-77
2022/10/03 10:01:25;;;;;;;2.60;1.47;;;12.90;99.90;;;;;;5042612;28;20878;-79
2022/10/03 10:04:26;;;;;;;7.70;2.80;;;12.90;99.90;;;;;;5058984;28;20578;-78
2022/10/03 10:07:31;;;;;;;4.40;1.97;;;12.90;99.90;;;;;;5049856;28;20493;-78
2022/10/03 10:10:21;;;;;;;1.77;1.67;;;13.10;99.90;;;;;;5057470;28;20459;-78
2022/10/03 10:13:14;;;;;;;3.23;1.30;;;13.30;99.90;;;;;;5062792;28;20465;-78
2022/10/03 10:16:27;;;;;;;4.50;2.30;;;13.60;99.90;;;;;;5055094;28;20463;-78
2022/10/03 10:19:28;;;;;;;1.50;1.17;;;13.90;99.90;;;;;;5055921;28;20970;-78
2022/10/03 10:22:23;;;;;;;6.30;1.47;;;14.00;99.90;;;;;;5065170;28;20453;-77
2022/10/03 10:25:19;;;;;;;1.70;1.47;;;14.30;99.90;;;;;;5053803;28;21030;-78
2022/10/03 10:28:31;;;;;;;4.80;0.93;;;13.90;99.90;;;;;;5063857;28;20584;-78
2022/10/03 10:31:53;;;;;;;1.40;0.90;;;13.50;99.90;;;;;;5060684;28;20969;-77
2022/10/03 10:34:53;;;;;;;2.20;0.93;;;13.20;99.90;;;;;;5007180;28;20445;-78
2022/10/03 10:38:02;;;;;;;1.37;1.07;;;13.10;99.90;;;;;;5042132;28;20971;-78
2022/10/03 10:41:02;;;;;;;6.80;1.53;;;13.10;99.90;;;;;;5048720;28;21034;-78
2022/10/03 10:44:11;;;;;;;3.00;0.80;;;13.20;99.90;;;;;;5008506;28;20927;-78
2022/10/03 10:47:17;;;;;;;3.90;0.90;;;13.50;99.90;;;;;;5053829;28;20486;-79
2022/10/03 10:50:37;;;;;;;3.10;0.80;;;13.60;99.90;;;;;;5061046;28;20448;-78
2022/10/03 10:53:41;;;;;;;2.60;0.70;;;13.80;99.90;;;;;;5062592;28;21213;-77
2022/10/03 10:56:45;;;;;;;2.53;1.30;;;13.70;99.90;;;;;;5057229;28;20464;-76
2022/10/03 10:59:51;;;;;;;2.37;0.70;;;13.50;99.90;;;;;;5058642;28;20598;-77
2022/10/03 11:02:54;;;;;;;4.60;1.73;;;13.50;99.90;;;;;;5058116;28;20520;-77
2022/10/03 11:06:08;;;;;;;0.90;0.90;;;13.50;99.90;;;;;;5042460;28;20847;-77
2022/10/03 11:09:25;;;;;;;0.70;0.60;;;13.60;99.90;;;;;;5061407;28;20478;-77
2022/10/03 11:12:46;;;;;;;2.40;0.60;;;13.40;99.90;;;;;;5062784;28;20479;-77
2022/10/03 11:15:49;;;;;;;8.20;1.00;;;13.60;99.90;;;;;;5063152;28;20464;-77
2022/10/03 11:19:00;;;;;;;1.50;0.60;;;13.70;99.90;;;;;;5057920;28;20488;-77
2022/10/03 11:21:59;;;;;;;2.50;0.93;;;13.90;99.90;;;;;;5022931;28;20486;-77
2022/10/03 11:25:11;;;;;;;1.63;1.10;;;13.60;99.90;;;;;;5057248;28;20506;-78
2022/10/03 11:28:15;;;;;;;1.27;0.80;;;13.50;99.90;;;;;;5044380;28;20483;-78
2022/10/03 11:31:21;;;;;;;5.50;0.90;;;13.30;99.90;;;;;;5064346;28;20463;-76
2022/10/03 11:34:23;;;;;;;1.10;0.87;;;13.20;99.90;;;;;;5059079;28;20517;-76
2022/10/03 11:37:07;;;;;;;3.00;1.00;;;13.20;99.90;;;;;;5061720;28;20467;-76
2022/10/03 11:39:44;;;;;;;5.17;1.17;;;13.20;99.90;;;;;;5052574;28;20491;-76
2022/10/03 11:42:21;;;;;;;4.70;1.20;;;13.20;99.90;;;;;;5055844;28;20487;-76
2022/10/03 11:44:56;;;;;;;1.73;0.90;;;13.20;99.90;;;;;;5054601;28;20490;-77
2022/10/03 11:47:46;;;;;;;1.37;0.73;;;13.20;99.90;;;;;;5058625;28;21493;-77
2022/10/03 11:50:41;;;;;;;3.47;1.13;;;13.40;99.90;;;;;;5061178;28;20470;-77
2022/10/03 11:53:34;;;;;;;6.17;1.13;;;13.60;99.90;;;;;;5060371;28;20460;-79
2022/10/03 11:56:16;;;;;;;1.90;0.70;;;13.70;99.90;;;;;;5052565;28;20465;-76
2022/10/03 11:58:55;;;;;;;4.43;1.00;;;13.70;99.90;;;;;;5061900;28;20490;-76
2022/10/03 12:01:29;;;;;;;5.10;2.00;;;13.40;99.90;;;;;;5060971;28;20495;-76
2022/10/03 12:04:07;;;;;;;4.73;3.00;;;13.50;99.90;;;;;;5061151;28;20478;-76
2022/10/03 12:09:54;;;;;;;3.70;1.13;;;13.20;99.90;;;;;;5049873;28;20911;-76
2022/10/03 12:12:30;;;;;;;7.07;3.43;;;13.60;99.90;;;;;;5058933;28;20529;-76
2022/10/03 12:15:03;;;;;;;9.23;2.50;;;13.50;99.90;;;;;;5052756;28;20531;-76
2022/10/03 12:17:34;;;;;;;2.30;1.63;;;13.80;99.90;;;;;;5057965;28;20471;-75
2022/10/03 12:20:09;;;;;;;6.47;2.50;;;13.90;99.90;;;;;;5064895;28;20511;-75
2022/10/03 12:22:48;;;;;;;4.87;1.83;;;13.80;99.90;;;;;;5060624;28;21002;-76
2022/10/03 12:25:22;;;;;;;1.40;0.90;;;13.80;99.90;;;;;;5053875;28;20461;-75
2022/10/03 12:27:59;;;;;;;2.20;0.80;;;13.80;99.90;;;;;;5065316;28;20493;-75
2022/10/03 12:30:31;;;;;;;3.33;0.90;;;13.70;99.90;;;;;;5057348;28;20458;-76
2022/10/03 12:33:18;;;;;;;6.37;0.97;;;13.80;99.90;;;;;;5060051;28;20478;-76
2022/10/03 12:35:52;;;;;;;1.20;0.93;;;13.80;99.90;;;;;;5049763;28;20488;-77
2022/10/03 12:38:32;;;;;;;1.20;0.80;;;13.90;99.90;;;;;;5058723;28;20514;-78
2022/10/03 12:41:17;;;;;;;6.90;1.00;;;14.20;99.90;;;;;;5056856;28;20560;-77
2022/10/03 12:44:03;;;;;;;5.30;0.83;;;14.20;99.90;;;;;;5057975;28;20477;-77
2022/10/03 12:46:39;;;;;;;2.47;0.90;;;14.00;99.90;;;;;;5047436;28;20470;-77
2022/10/03 12:49:13;;;;;;;3.60;0.80;;;13.90;99.90;;;;;;5057094;28;20525;-77
2022/10/03 12:51:51;;;;;;;2.53;0.83;;;14.00;99.90;;;;;;5061686;28;20898;-77
2022/10/03 12:54:33;;;;;;;3.00;0.77;;;14.40;99.90;;;;;;5055191;28;20437;-77
2022/10/03 12:57:23;;;;;;;1.23;0.70;;;14.50;99.90;;;;;;5061533;28;20950;-77
2022/10/03 12:59:57;;;;;;;3.37;0.87;;;14.50;99.90;;;;;;5057228;28;20518;-77
2022/10/03 13:02:29;;;;;;;1.43;0.70;;;14.30;99.90;;;;;;5057341;28;20514;-77
2022/10/03 13:05:30;;;;;;;3.20;1.57;;;14.30;99.90;;;;;;5062313;28;20452;-77
2022/10/03 13:08:02;;;;;;;2.10;0.60;;;14.20;99.90;;;;;;5058397;28;20454;-77
2022/10/03 13:10:40;;;;;;;5.10;0.67;;;14.20;99.90;;;;;;5059976;28;20450;-77
2022/10/03 13:13:25;;;;;;;2.40;0.80;;;14.00;99.90;;;;;;5060418;28;20556;-77
2022/10/03 13:16:19;;;;;;;4.80;0.80;;;13.90;99.90;;;;;;5061050;28;20472;-77
2022/10/03 13:18:56;;;;;;;0.97;0.97;;;13.70;99.90;;;;;;5053624;28;20548;-77
2022/10/03 13:21:34;;;;;;;3.80;0.80;;;13.70;99.90;;;;;;5060254;28;20459;-77
2022/10/03 13:24:06;;;;;;;1.87;1.17;;;13.80;99.90;;;;;;5056318;28;21042;-77
2022/10/03 13:26:47;;;;;;;1.10;0.70;;;13.90;99.90;;;;;;5051331;28;20497;-77
2022/10/03 13:29:35;;;;;;;3.33;1.13;;;14.10;99.90;;;;;;5051336;28;20554;-77
2022/10/03 13:32:15;;;;;;;2.43;1.03;;;14.10;99.90;;;;;;5057023;28;20456;-77
2022/10/03 13:35:57;;;;;;;2.53;0.83;;;13.90;99.90;;;;;;5055051;28;20546;-77
2022/10/03 13:38:30;;;;;;;4.80;1.30;;;13.80;99.90;;;;;;5039089;28;20439;-77
2022/10/03 13:41:05;;;;;;;2.07;0.63;;;13.90;99.90;;;;;;5054001;28;21029;-77
2022/10/03 13:43:36;;;;;;;0.67;0.63;;;14.00;99.90;;;;;;5057322;28;20524;-76
2022/10/03 13:46:11;;;;;;;1.87;0.80;;;14.10;99.90;;;;;;5061919;28;20480;-76
2022/10/03 13:48:41;;;;;;;4.10;0.80;;;14.10;99.90;;;;;;5053574;28;20563;-77
2022/10/03 13:51:20;;;;;;;2.10;0.87;;;14.10;99.90;;;;;;5056111;28;20508;-77
2022/10/03 13:54:00;;;;;;;3.37;1.00;;;14.30;99.90;;;;;;5060383;28;20460;-77
2022/10/03 13:56:48;;;;;;;1.53;1.00;;;14.20;99.90;;;;;;5058458;28;20466;-77
2022/10/03 13:59:40;;;;;;;1.97;1.20;;;14.10;99.90;;;;;;5059473;28;20985;-77
2022/10/03 14:02:33;;;;;;;2.80;1.20;;;13.90;99.90;;;;;;5055236;28;20477;-77
2022/10/03 14:05:21;;;;;;;5.77;1.30;;;14.00;99.90;;;;;;5052997;28;20490;-77
2022/10/03 14:07:54;;;;;;;4.07;1.73;;;14.10;99.90;;;;;;5063078;28;20490;-77
2022/10/03 14:10:47;;;;;;;6.73;2.03;;;14.10;99.90;;;;;;5062448;28;20463;-77
2022/10/03 14:13:23;;;;;;;3.90;2.00;;;14.00;99.90;;;;;;5049409;28;21992;-78
2022/10/03 14:15:57;;;;;;;1.50;1.20;;;13.90;99.90;;;;;;5060734;28;20460;-77
2022/10/03 14:18:43;;;;;;;4.83;1.03;;;13.80;99.90;;;;;;5060440;28;20465;-77
2022/10/03 14:21:45;;;;;;;1.70;0.90;;;13.70;99.90;;;;;;5055684;28;20490;-77
2022/10/03 14:24:45;;;;;;;4.73;1.63;;;13.60;99.90;;;;;;5060977;28;20451;-77
2022/10/03 14:27:34;;;;;;;2.07;1.47;;;13.60;99.90;;;;;;5055535;28;20499;-77
2022/10/03 14:30:08;;;;;;;4.83;2.00;;;13.60;99.90;;;;;;5061769;28;20462;-83
2022/10/03 14:32:44;;;;;;;2.90;1.00;;;13.60;99.90;;;;;;5062919;28;20455;-78
2022/10/03 14:35:24;;;;;;;4.40;1.10;;;13.60;99.90;;;;;;5058330;28;20460;-77
2022/10/03 14:37:57;;;;;;;3.13;1.63;;;13.70;99.90;;;;;;5059657;28;20560;-78
2022/10/03 14:40:37;;;;;;;2.27;1.00;;;14.10;99.90;;;;;;5061682;28;20512;-78
2022/10/03 14:43:21;;;;;;;4.23;1.33;;;14.30;99.90;;;;;;5060309;28;20462;-78
2022/10/03 14:45:52;;;;;;;2.07;1.03;;;14.20;99.90;;;;;;5056633;28;20495;-78
2022/10/03 14:48:23;;;;;;;4.83;1.53;;;14.00;99.90;;;;;;5057845;28;20559;-79
2022/10/03 14:50:56;;;;;;;2.23;1.27;;;13.80;99.90;;;;;;5062829;28;20479;-79
2022/10/03 14:53:28;;;;;;;9.83;2.50;;;13.80;99.90;;;;;;5056166;28;20949;-79